Time;durP1;ratioP1;P1;durP2;ratioP2;P2;SDS_P1;SDS_P2;PMS_P1;PMS_P2;Temp;Humidity;BMP_temperature;BMP_pressure;BME280_temperature;BME280_humidity;BME280_pressure;Samples;Min_cycle;Max_cycle;Signal;HPM_P1;HPM_P2
2023/05/26 00:02:24;;;;;;;;;;;18.50;63.70;;;;;;5030921;28;1312;-71
2023/05/26 00:04:50;;;;;;;;;;;18.50;63.70;;;;;;5036576;28;872;-72
2023/05/26 00:07:16;;;;;;;;;;;18.50;63.70;;;;;;5024578;28;840;-71
2023/05/26 00:09:41;;;;;;;;;;;18.50;63.70;;;;;;5038904;28;1942;-71
2023/05/26 00:12:07;;;;;;;;;;;18.50;63.70;;;;;;5021408;28;1297;-71
2023/05/26 00:14:32;;;;;;;;;;;18.50;63.70;;;;;;5038157;28;955;-71
2023/05/26 00:16:58;;;;;;;;;;;18.50;63.70;;;;;;5022370;28;816;-71
2023/05/26 00:19:24;;;;;;;;;;;18.50;63.70;;;;;;5035977;28;950;-71
2023/05/26 00:21:50;;;;;;;;;;;18.50;63.70;;;;;;5035859;28;1295;-71
2023/05/26 00:24:16;;;;;;;;;;;18.50;63.70;;;;;;5008644;28;1170;-71
2023/05/26 00:26:41;;;;;;;;;;;18.50;63.80;;;;;;5018590;28;875;-71
2023/05/26 00:29:06;;;;;;;;;;;18.50;63.80;;;;;;5039695;28;1906;-71
2023/05/26 00:31:32;;;;;;;;;;;18.50;63.80;;;;;;5033972;28;1292;-71
2023/05/26 00:33:57;;;;;;;;;;;18.50;63.80;;;;;;5021482;28;1497;-71
2023/05/26 00:36:23;;;;;;;;;;;18.50;63.80;;;;;;5039316;28;907;-71
2023/05/26 00:38:48;;;;;;;;;;;18.50;63.80;;;;;;5040332;28;933;-71
2023/05/26 00:41:14;;;;;;;;;;;18.50;63.80;;;;;;5038070;28;1293;-71
2023/05/26 00:43:39;;;;;;;;;;;18.50;63.80;;;;;;5037404;28;901;-71
2023/05/26 00:46:05;;;;;;;;;;;18.50;63.80;;;;;;5021562;28;870;-71
2023/05/26 00:48:30;;;;;;;;;;;18.50;63.90;;;;;;5040146;28;1902;-71
2023/05/26 00:50:56;;;;;;;;;;;18.50;63.90;;;;;;5037583;28;950;-71
2023/05/26 00:53:22;;;;;;;;;;;18.50;63.90;;;;;;5023889;28;1456;-71
2023/05/26 00:55:49;;;;;;;;;;;18.50;63.90;;;;;;5037101;28;861;-71
2023/05/26 00:58:15;;;;;;;;;;;18.50;63.90;;;;;;5041912;28;832;-71
2023/05/26 01:00:40;;;;;;;;;;;18.50;63.90;;;;;;5023161;28;867;-71
2023/05/26 01:03:06;;;;;;;;;;;18.50;63.90;;;;;;5035405;28;1354;-70
2023/05/26 01:05:32;;;;;;;;;;;18.50;63.90;;;;;;5023562;28;836;-72
2023/05/26 01:07:57;;;;;;;;;;;18.50;63.90;;;;;;5022429;28;1973;-71
2023/05/26 01:10:23;;;;;;;;;;;18.50;63.90;;;;;;5039039;28;934;-71
2023/05/26 01:13:08;;;;;;;;;;;18.50;63.90;;;;;;5022884;28;1307;-71
2023/05/26 01:15:36;;;;;;;;;;;18.50;64.00;;;;;;5012207;28;1193;-71
2023/05/26 01:18:13;;;;;;;;;;;18.50;64.00;;;;;;5019918;28;892;-71
2023/05/26 01:20:57;;;;;;;;;;;18.50;64.00;;;;;;5036253;28;887;-71
2023/05/26 01:23:29;;;;;;;;;;;18.50;64.00;;;;;;5021971;28;1656;-71
2023/05/26 01:26:01;;;;;;;;;;;18.50;64.00;;;;;;5042325;28;823;-71
2023/05/26 01:28:26;;;;;;;;;;;18.50;64.00;;;;;;5040942;28;1894;-71
2023/05/26 01:30:52;;;;;;;;;;;18.50;64.00;;;;;;5042245;28;820;-71
2023/05/26 01:33:17;;;;;;;;;;;18.50;64.00;;;;;;5033676;28;1282;-71
2023/05/26 01:35:43;;;;;;;;;;;18.50;64.00;;;;;;5041757;28;802;-71
2023/05/26 01:38:08;;;;;;;;;;;18.50;64.10;;;;;;5041825;28;1752;-71
2023/05/26 01:40:34;;;;;;;;;;;18.50;64.00;;;;;;5026360;28;862;-71
2023/05/26 01:42:59;;;;;;;;;;;18.50;64.10;;;;;;5025227;28;1365;-71
2023/05/26 01:45:26;;;;;;;;;;;18.50;64.10;;;;;;5040633;28;925;-71
2023/05/26 01:47:58;;;;;;;;;;;18.50;64.10;;;;;;5026365;28;1913;-71
2023/05/26 01:50:26;;;;;;;;;;;18.50;64.10;;;;;;5043809;28;792;-71
2023/05/26 01:52:52;;;;;;;;;;;18.50;64.10;;;;;;5040179;28;1337;-71
2023/05/26 01:55:17;;;;;;;;;;;18.50;64.10;;;;;;5022439;28;999;-71
2023/05/26 01:57:43;;;;;;;;;;;18.50;64.10;;;;;;5039231;28;830;-71
2023/05/26 02:00:12;;;;;;;;;;;18.50;64.10;;;;;;5029854;28;920;-71
2023/05/26 02:02:37;;;;;;;;;;;18.50;64.10;;;;;;5041126;28;1259;-71
2023/05/26 02:05:03;;;;;;;;;;;18.50;64.10;;;;;;5042093;28;1368;-71
2023/05/26 02:07:29;;;;;;;;;;;18.50;64.10;;;;;;5032284;28;1217;-71
2023/05/26 02:09:55;;;;;;;;;;;18.50;64.10;;;;;;5040961;28;1898;-71
2023/05/26 02:12:20;;;;;;;;;;;18.50;64.10;;;;;;5043468;28;1372;-71
2023/05/26 02:14:46;;;;;;;;;;;18.50;64.10;;;;;;5026581;28;1184;-71
2023/05/26 02:17:13;;;;;;;;;;;18.50;64.20;;;;;;5043765;28;1301;-71
2023/05/26 02:19:40;;;;;;;;;;;18.50;64.20;;;;;;5031477;28;1596;-71
2023/05/26 02:22:05;;;;;;;;;;;18.50;64.20;;;;;;5042977;28;1628;-69
2023/05/26 02:24:32;;;;;;;;;;;18.50;64.20;;;;;;5026341;28;1437;-70
2023/05/26 02:26:57;;;;;;;;;;;18.50;64.20;;;;;;5043181;28;1463;-70
2023/05/26 02:29:22;;;;;;;;;;;18.50;64.20;;;;;;5026767;28;1898;-69
2023/05/26 02:31:48;;;;;;;;;;;18.50;64.20;;;;;;5041260;28;1363;-71
2023/05/26 02:34:13;;;;;;;;;;;18.50;64.20;;;;;;5039828;28;1074;-72
2023/05/26 02:36:40;;;;;;;;;;;18.50;64.20;;;;;;5037301;28;1010;-72
2023/05/26 02:39:05;;;;;;;;;;;18.50;64.20;;;;;;5044178;28;832;-71
2023/05/26 02:41:31;;;;;;;;;;;18.50;64.20;;;;;;5039812;28;1261;-71
2023/05/26 02:43:56;;;;;;;;;;;18.50;64.20;;;;;;5046851;28;828;-71
2023/05/26 02:46:22;;;;;;;;;;;18.50;64.30;;;;;;5041148;28;939;-71
2023/05/26 02:48:47;;;;;;;;;;;18.50;64.20;;;;;;5041904;28;1965;-71
2023/05/26 02:51:12;;;;;;;;;;;18.50;64.20;;;;;;5041540;28;903;-71
2023/05/26 02:53:38;;;;;;;;;;;18.50;64.30;;;;;;5041496;28;803;-71
2023/05/26 02:56:03;;;;;;;;;;;18.50;64.30;;;;;;5024400;28;840;-71
2023/05/26 02:58:29;;;;;;;;;;;18.50;64.30;;;;;;5041233;28;840;-70
2023/05/26 03:00:55;;;;;;;;;;;18.50;64.30;;;;;;5039941;28;848;-71
2023/05/26 03:03:20;;;;;;;;;;;18.50;64.30;;;;;;5039009;28;1353;-71
2023/05/26 03:05:46;;;;;;;;;;;18.50;64.30;;;;;;5040101;28;808;-71
2023/05/26 03:08:11;;;;;;;;;;;18.50;64.30;;;;;;5038141;28;2007;-71
2023/05/26 03:10:39;;;;;;;;;;;18.50;64.30;;;;;;5040947;28;957;-71
2023/05/26 03:13:05;;;;;;;;;;;18.50;64.30;;;;;;5037551;28;1254;-71
2023/05/26 03:15:35;;;;;;;;;;;18.50;64.30;;;;;;5042748;28;883;-71
2023/05/26 03:18:00;;;;;;;;;;;18.50;64.30;;;;;;5024087;28;868;-71
2023/05/26 03:20:25;;;;;;;;;;;18.50;64.40;;;;;;5039816;28;1004;-71
2023/05/26 03:22:51;;;;;;;;;;;18.50;64.40;;;;;;5038526;28;1255;-71
2023/05/26 03:25:16;;;;;;;;;;;18.50;64.40;;;;;;5039743;28;915;-71
2023/05/26 03:27:42;;;;;;;;;;;18.50;64.40;;;;;;5040066;28;892;-71
2023/05/26 03:30:08;;;;;;;;;;;18.50;64.40;;;;;;5030326;28;1955;-71
2023/05/26 03:32:34;;;;;;;;;;;18.50;64.40;;;;;;5035674;28;1211;-71
2023/05/26 03:34:59;;;;;;;;;;;18.50;64.40;;;;;;5037857;28;1445;-71
2023/05/26 03:37:25;;;;;;;;;;;18.50;64.40;;;;;;5038463;28;931;-72
2023/05/26 03:39:50;;;;;;;;;;;18.50;64.40;;;;;;5040108;28;820;-73
2023/05/26 03:42:16;;;;;;;;;;;18.50;64.40;;;;;;5026700;28;1271;-73
2023/05/26 03:44:41;;;;;;;;;;;18.50;64.40;;;;;;5025412;28;1819;-69
2023/05/26 03:47:07;;;;;;;;;;;18.50;64.50;;;;;;5039284;28;2077;-69
2023/05/26 03:49:32;;;;;;;;;;;18.50;64.40;;;;;;5040171;28;1950;-69
2023/05/26 03:51:58;;;;;;;;;;;18.50;64.40;;;;;;5039531;28;1319;-69
2023/05/26 03:54:23;;;;;;;;;;;18.50;64.50;;;;;;5026077;28;828;-67
2023/05/26 03:56:49;;;;;;;;;;;18.50;64.50;;;;;;5039933;28;797;-67
2023/05/26 03:59:14;;;;;;;;;;;18.50;64.90;;;;;;5040730;28;816;-66
2023/05/26 04:01:40;;;;;;;;;;;18.50;64.50;;;;;;5037936;28;1346;-68
2023/05/26 04:04:05;;;;;;;;;;;18.50;64.50;;;;;;5038519;28;1250;-68
2023/05/26 04:06:31;;;;;;;;;;;18.50;64.50;;;;;;5034214;28;808;-66
2023/05/26 04:08:59;;;;;;;;;;;18.50;64.50;;;;;;5025875;28;1965;-69
2023/05/26 04:11:25;;;;;;;;;;;18.50;64.50;;;;;;5038290;28;1280;-72
2023/05/26 04:13:51;;;;;;;;;;;18.50;64.50;;;;;;5043072;28;808;-72
2023/05/26 04:16:16;;;;;;;;;;;18.50;64.50;;;;;;5037761;28;891;-73
2023/05/26 04:18:41;;;;;;;;;;;18.50;64.50;;;;;;5040306;28;939;-72
2023/05/26 04:21:07;;;;;;;;;;;18.50;64.50;;;;;;5042629;28;829;-71
2023/05/26 04:23:33;;;;;;;;;;;18.50;64.50;;;;;;5023671;28;1158;-73
2023/05/26 04:26:00;;;;;;;;;;;18.50;64.50;;;;;;5041866;28;963;-73
2023/05/26 04:28:26;;;;;;;;;;;18.50;64.50;;;;;;5040388;28;1960;-73
2023/05/26 04:30:52;;;;;;;;;;;18.50;64.60;;;;;;5040192;28;909;-74
2023/05/26 04:33:17;;;;;;;;;;;18.50;64.60;;;;;;5039063;28;1390;-68
2023/05/26 04:35:44;;;;;;;;;;;18.50;64.60;;;;;;5038687;28;911;-67
2023/05/26 04:38:12;;;;;;;;;;;18.50;64.60;;;;;;5042192;28;873;-69
2023/05/26 04:40:38;;;;;;;;;;;18.50;64.60;;;;;;5043146;28;1112;-69
2023/05/26 04:43:04;;;;;;;;;;;18.50;64.60;;;;;;5024324;28;1295;-68
2023/05/26 04:45:30;;;;;;;;;;;18.50;64.60;;;;;;5031849;28;2192;-70
2023/05/26 04:47:56;;;;;;;;;;;18.50;64.60;;;;;;5016928;28;1946;-68
2023/05/26 04:50:23;;;;;;;;;;;18.50;64.60;;;;;;5038654;28;836;-69
2023/05/26 04:52:51;;;;;;;;;;;18.50;64.60;;;;;;5022715;28;1223;-70
2023/05/26 04:55:17;;;;;;;;;;;18.50;64.60;;;;;;5038080;28;884;-71
2023/05/26 04:57:43;;;;;;;;;;;18.50;64.60;;;;;;5035656;28;926;-71
2023/05/26 05:00:13;;;;;;;;;;;18.50;64.70;;;;;;5035380;28;852;-73
2023/05/26 05:02:39;;;;;;;;;;;18.50;65.40;;;;;;5037415;28;1284;-72
2023/05/26 05:05:05;;;;;;;;;;;18.50;64.70;;;;;;5041024;28;828;-69
2023/05/26 05:07:30;;;;;;;;;;;18.50;64.70;;;;;;5039276;28;873;-73
2023/05/26 05:09:56;;;;;;;;;;;18.50;64.60;;;;;;5037648;28;1913;-70
2023/05/26 05:12:21;;;;;;;;;;;18.50;64.70;;;;;;5038557;28;1450;-68
2023/05/26 05:14:47;;;;;;;;;;;18.50;64.70;;;;;;5038767;28;811;-74
2023/05/26 05:17:12;;;;;;;;;;;18.50;64.70;;;;;;5037377;28;853;-75
2023/05/26 05:19:38;;;;;;;;;;;18.50;64.70;;;;;;5036297;28;1417;-75
2023/05/26 05:22:03;;;;;;;;;;;18.50;64.70;;;;;;5021589;28;1301;-74
2023/05/26 05:24:29;;;;;;;;;;;18.50;64.70;;;;;;5025449;28;985;-75
2023/05/26 05:26:54;;;;;;;;;;;18.50;64.70;;;;;;5039835;28;809;-75
2023/05/26 05:29:20;;;;;;;;;;;18.50;64.70;;;;;;5041509;28;1902;-74
2023/05/26 05:31:45;;;;;;;;;;;18.50;64.70;;;;;;5037246;28;1328;-74
2023/05/26 05:34:10;;;;;;;;;;;18.50;64.70;;;;;;5037342;28;1374;-73
2023/05/26 05:36:36;;;;;;;;;;;18.50;64.70;;;;;;5022031;28;912;-74
2023/05/26 05:39:01;;;;;;;;;;;18.50;64.80;;;;;;5036401;28;884;-74
2023/05/26 05:41:28;;;;;;;;;;;18.50;64.70;;;;;;5022069;28;1236;-74
2023/05/26 05:43:56;;;;;;;;;;;18.50;64.80;;;;;;5037992;28;820;-74
2023/05/26 05:46:24;;;;;;;;;;;18.50;64.80;;;;;;5024048;28;850;-73
2023/05/26 05:48:50;;;;;;;;;;;18.50;64.80;;;;;;5009525;28;1964;-72
2023/05/26 05:51:15;;;;;;;;;;;18.50;64.80;;;;;;5037208;28;1342;-72
2023/05/26 05:53:41;;;;;;;;;;;18.50;64.80;;;;;;5043288;28;939;-71
2023/05/26 05:56:06;;;;;;;;;;;18.50;64.80;;;;;;5037154;28;1680;-72
2023/05/26 05:58:32;;;;;;;;;;;18.50;64.80;;;;;;5010386;28;4234;-72
2023/05/26 06:00:57;;;;;;;;;;;18.50;64.80;;;;;;5023955;28;1630;-72
2023/05/26 06:03:23;;;;;;;;;;;18.50;64.80;;;;;;5031238;28;1374;-72
2023/05/26 06:05:48;;;;;;;;;;;18.50;64.80;;;;;;5038263;28;898;-72
2023/05/26 06:08:14;;;;;;;;;;;18.50;64.80;;;;;;5038894;28;1910;-72
2023/05/26 06:10:39;;;;;;;;;;;18.50;64.80;;;;;;5034828;28;836;-72
2023/05/26 06:13:05;;;;;;;;;;;18.50;64.80;;;;;;5040090;28;1285;-72
2023/05/26 06:15:30;;;;;;;;;;;18.50;64.80;;;;;;5042867;28;1053;-72
2023/05/26 06:17:56;;;;;;;;;;;18.50;64.80;;;;;;5026081;28;826;-73
2023/05/26 06:20:21;;;;;;;;;;;18.50;64.90;;;;;;5038319;28;872;-73
2023/05/26 06:22:46;;;;;;;;;;;18.50;64.90;;;;;;5028744;28;1273;-73
2023/05/26 06:25:12;;;;;;;;;;;18.50;64.80;;;;;;5041299;28;863;-74
2023/05/26 06:27:37;;;;;;;;;;;18.50;64.90;;;;;;5028294;28;884;-73
2023/05/26 06:30:03;;;;;;;;;;;18.50;64.90;;;;;;5041857;28;1921;-73
2023/05/26 06:32:28;;;;;;;;;;;18.50;64.90;;;;;;5039123;28;1271;-73
2023/05/26 06:34:54;;;;;;;;;;;18.50;64.90;;;;;;5043941;28;1350;-73
2023/05/26 06:37:20;;;;;;;;;;;18.50;64.90;;;;;;5039116;28;860;-72
2023/05/26 06:39:45;;;;;;;;;;;18.50;64.90;;;;;;5040895;28;818;-71
2023/05/26 06:42:11;;;;;;;;;;;18.50;64.90;;;;;;5046516;28;1267;-73
2023/05/26 06:44:36;;;;;;;;;;;18.50;64.90;;;;;;5028047;28;931;-71
2023/05/26 06:47:01;;;;;;;;;;;18.50;64.90;;;;;;5039692;28;880;-76
2023/05/26 06:49:27;;;;;;;;;;;18.50;64.90;;;;;;5024855;28;1891;-76
2023/05/26 06:51:52;;;;;;;;;;;18.50;64.90;;;;;;5042608;28;1197;-74
2023/05/26 06:54:18;;;;;;;;;;;18.50;64.90;;;;;;5042599;28;1019;-72
2023/05/26 06:56:43;;;;;;;;;;;18.50;64.90;;;;;;5041660;28;865;-72
2023/05/26 06:59:09;;;;;;;;;;;18.50;64.90;;;;;;5042238;28;883;-71
2023/05/26 07:01:34;;;;;;;;;;;18.50;64.90;;;;;;5037915;28;1344;-72
2023/05/26 07:04:00;;;;;;;;;;;18.50;64.90;;;;;;5039955;28;824;-72
2023/05/26 07:06:25;;;;;;;;;;;18.50;64.90;;;;;;5039412;28;892;-72
2023/05/26 07:08:51;;;;;;;;;;;18.50;65.00;;;;;;5035190;28;1973;-72
2023/05/26 07:11:16;;;;;;;;;;;18.50;64.90;;;;;;5040115;28;1206;-72
2023/05/26 07:13:42;;;;;;;;;;;18.50;65.00;;;;;;5040741;28;820;-71
2023/05/26 07:16:07;;;;;;;;;;;18.50;65.00;;;;;;5041578;28;2148;-71
2023/05/26 07:18:32;;;;;;;;;;;18.50;65.00;;;;;;5040143;28;1411;-73
2023/05/26 07:20:58;;;;;;;;;;;18.50;64.90;;;;;;5024956;28;1153;-72
2023/05/26 07:23:23;;;;;;;;;;;18.50;65.00;;;;;;5038637;28;1377;-71
2023/05/26 07:25:49;;;;;;;;;;;18.50;65.00;;;;;;5026622;28;974;-72
2023/05/26 07:28:14;;;;;;;;;;;18.50;65.00;;;;;;5039688;28;2087;-72
2023/05/26 07:30:40;;;;;;;;;;;18.50;65.00;;;;;;5040360;28;1300;-71
2023/05/26 07:33:05;;;;;;;;;;;18.50;65.00;;;;;;5037976;28;1274;-72
2023/05/26 07:35:31;;;;;;;;;;;18.50;65.00;;;;;;5010438;28;1500;-72
2023/05/26 07:37:57;;;;;;;;;;;18.50;65.00;;;;;;5023786;28;1114;-72
2023/05/26 07:40:23;;;;;;;;;;;18.50;65.00;;;;;;5025482;28;848;-72
2023/05/26 07:42:48;;;;;;;;;;;18.50;65.00;;;;;;5041816;28;1385;-72
2023/05/26 07:45:13;;;;;;;;;;;18.50;65.00;;;;;;5040317;28;852;-72
2023/05/26 07:47:40;;;;;;;;;;;18.50;65.00;;;;;;5037543;28;927;-72
2023/05/26 07:50:06;;;;;;;;;;;18.50;65.00;;;;;;5039189;28;1914;-72
2023/05/26 07:52:31;;;;;;;;;;;18.50;65.00;;;;;;5040741;28;1260;-72
2023/05/26 07:54:58;;;;;;;;;;;18.50;65.00;;;;;;5042320;28;846;-70
2023/05/26 07:57:23;;;;;;;;;;;18.50;65.00;;;;;;5036769;28;840;-70
2023/05/26 07:59:49;;;;;;;;;;;18.50;65.00;;;;;;5039566;28;831;-71
2023/05/26 08:02:14;;;;;;;;;;;18.50;65.10;;;;;;5041496;28;1272;-70
2023/05/26 08:04:40;;;;;;;;;;;18.50;65.00;;;;;;5042718;28;857;-70
2023/05/26 08:07:06;;;;;;;;;;;18.50;65.10;;;;;;5038954;28;821;-69
2023/05/26 08:09:31;;;;;;;;;;;18.50;65.00;;;;;;5041585;28;1957;-70
2023/05/26 08:11:57;;;;;;;;;;;18.50;65.10;;;;;;5040449;28;1331;-71
2023/05/26 08:14:23;;;;;;;;;;;18.50;65.10;;;;;;5040885;28;942;-72
2023/05/26 08:16:48;;;;;;;;;;;18.50;65.10;;;;;;5038072;28;1327;-71
2023/05/26 08:19:14;;;;;;;;;;;18.50;65.10;;;;;;5037321;28;922;-72
2023/05/26 08:21:39;;;;;;;;;;;18.50;65.10;;;;;;5025479;28;1466;-71
2023/05/26 08:24:05;;;;;;;;;;;18.50;65.10;;;;;;5043103;28;864;-71
2023/05/26 08:26:31;;;;;;;;;;;18.50;65.10;;;;;;5037332;28;974;-71
2023/05/26 08:28:56;;;;;;;;;;;18.50;65.10;;;;;;5025916;28;1898;-71
2023/05/26 08:31:21;;;;;;;;;;;18.50;65.10;;;;;;5037158;28;1523;-72
2023/05/26 08:33:47;;;;;;;;;;;18.50;65.10;;;;;;5030528;28;1273;-72
2023/05/26 08:36:12;;;;;;;;;;;18.50;65.10;;;;;;5037644;28;1123;-70
2023/05/26 08:38:38;;;;;;;;;;;18.50;65.10;;;;;;5035705;28;907;-71
2023/05/26 08:41:04;;;;;;;;;;;18.50;65.10;;;;;;5042014;28;943;-71
2023/05/26 08:43:37;;;;;;;;;;;18.50;65.10;;;;;;5024065;28;1192;-70
2023/05/26 08:46:04;;;;;;;;;;;18.50;65.10;;;;;;5039347;28;1267;-70
2023/05/26 08:48:30;;;;;;;;;;;18.50;65.20;;;;;;5027683;28;1906;-70
2023/05/26 08:50:55;;;;;;;;;;;18.50;65.10;;;;;;5039610;28;872;-70
2023/05/26 08:53:23;;;;;;;;;;;18.50;65.10;;;;;;5021069;28;2269;-70
2023/05/26 08:55:49;;;;;;;;;;;18.50;65.10;;;;;;5008886;28;2190;-70
2023/05/26 08:58:14;;;;;;;;;;;18.50;65.20;;;;;;5039071;28;1096;-70
2023/05/26 09:00:41;;;;;;;;;;;18.50;65.20;;;;;;5023561;28;1243;-73
2023/05/26 09:03:07;;;;;;;;;;;18.50;65.10;;;;;;5036158;28;2133;-74
2023/05/26 09:05:33;;;;;;;;;;;18.50;65.90;;;;;;5037789;28;1355;-73
2023/05/26 09:07:58;;;;;;;;;;;18.50;65.20;;;;;;5022042;28;1424;-73
2023/05/26 09:10:29;;;;;;;;;;;18.50;65.20;;;;;;5036345;28;1906;-73
2023/05/26 09:13:02;;;;;;;;;;;18.50;65.20;;;;;;5040713;28;1253;-73
2023/05/26 09:15:27;;;;;;;;;;;18.50;65.20;;;;;;5040729;28;2099;-74
2023/05/26 09:17:53;;;;;;;;;;;18.50;65.20;;;;;;5038554;28;1976;-71
2023/05/26 09:20:18;;;;;;;;;;;18.50;65.10;;;;;;5037757;28;1336;-70
2023/05/26 09:22:44;;;;;;;;;;;18.50;65.20;;;;;;5030621;28;2113;-70
2023/05/26 09:25:09;;;;;;;;;;;18.50;65.20;;;;;;5038594;28;1355;-70
2023/05/26 09:27:36;;;;;;;;;;;18.50;65.20;;;;;;5037782;28;846;-71
2023/05/26 09:30:01;;;;;;;;;;;18.50;66.00;;;;;;5022267;28;1894;-71
2023/05/26 09:32:27;;;;;;;;;;;18.50;65.20;;;;;;5040439;28;1323;-71
2023/05/26 09:34:54;;;;;;;;;;;18.50;65.20;;;;;;5039385;28;1457;-71
2023/05/26 09:37:25;;;;;;;;;;;18.50;65.20;;;;;;5023878;28;1257;-71
2023/05/26 09:39:50;;;;;;;;;;;18.50;65.20;;;;;;5036990;28;1064;-71
2023/05/26 09:42:16;;;;;;;;;;;18.50;65.20;;;;;;5026021;28;1241;-71
2023/05/26 09:44:46;;;;;;;;;;;18.50;65.20;;;;;;5039074;28;998;-71
2023/05/26 09:47:13;;;;;;;;;;;18.50;65.20;;;;;;5042229;28;798;-71
2023/05/26 09:49:38;;;;;;;;;;;18.50;65.20;;;;;;5040767;28;1886;-71
2023/05/26 09:52:04;;;;;;;;;;;18.50;65.20;;;;;;5040835;28;1330;-71
2023/05/26 09:54:29;;;;;;;;;;;18.50;65.20;;;;;;5010508;28;1299;-71
2023/05/26 09:56:59;;;;;;;;;;;18.50;65.20;;;;;;5041479;28;899;-71
2023/05/26 09:59:27;;;;;;;;;;;18.50;65.20;;;;;;5026865;28;910;-71
2023/05/26 10:01:52;;;;;;;;;;;18.50;65.20;;;;;;5027035;28;1390;-71
2023/05/26 10:04:18;;;;;;;;;;;18.50;65.20;;;;;;5025850;28;880;-71
2023/05/26 10:06:43;;;;;;;;;;;18.50;65.20;;;;;;5042192;28;794;-71
2023/05/26 10:09:09;;;;;;;;;;;18.50;65.20;;;;;;5030270;28;1910;-71
2023/05/26 10:11:45;;;;;;;;;;;18.50;65.20;;;;;;5045682;28;1306;-71
2023/05/26 10:14:10;;;;;;;;;;;18.50;65.20;;;;;;5035082;28;770;-71
2023/05/26 10:16:36;;;;;;;;;;;18.50;65.20;;;;;;5026714;28;1625;-72
2023/05/26 10:19:01;;;;;;;;;;;18.50;65.20;;;;;;5041889;28;1010;-71
2023/05/26 10:21:27;;;;;;;;;;;18.50;65.20;;;;;;5029047;28;1516;-71
2023/05/26 10:23:59;;;;;;;;;;;18.50;65.20;;;;;;5039803;28;951;-71
2023/05/26 10:26:26;;;;;;;;;;;18.50;65.20;;;;;;5041280;28;844;-71
2023/05/26 10:28:56;;;;;;;;;;;18.50;65.20;;;;;;5023841;28;1902;-71
2023/05/26 10:31:31;;;;;;;;;;;18.50;65.30;;;;;;5039379;28;1291;-71
2023/05/26 10:33:57;;;;;;;;;;;18.50;65.30;;;;;;5026836;28;1386;-72
2023/05/26 10:36:23;;;;;;;;;;;18.50;65.30;;;;;;5026124;28;828;-74
2023/05/26 10:38:52;;;;;;;;;;;18.50;65.30;;;;;;5040573;28;875;-72
2023/05/26 10:41:36;;;;;;;;;;;18.50;65.30;;;;;;5040132;28;1415;-69
2023/05/26 10:44:02;;;;;;;;;;;18.50;65.30;;;;;;5043213;28;826;-69
2023/05/26 10:46:37;;;;;;;;;;;18.50;65.30;;;;;;5021346;28;1462;-71
2023/05/26 10:49:02;;;;;;;;;;;18.50;65.30;;;;;;5038611;28;1902;-71
2023/05/26 10:51:28;;;;;;;;;;;18.50;65.30;;;;;;5037859;28;1272;-71
2023/05/26 10:53:56;;;;;;;;;;;18.50;66.10;;;;;;5026070;28;958;-70
2023/05/26 10:56:34;;;;;;;;;;;18.50;65.30;;;;;;5027336;28;1002;-71
2023/05/26 10:59:00;;;;;;;;;;;18.50;65.30;;;;;;5040268;28;1153;-70
2023/05/26 11:01:26;;;;;;;;;;;18.50;65.30;;;;;;5022993;28;1268;-71
2023/05/26 11:03:55;;;;;;;;;;;18.50;65.30;;;;;;5021724;28;1374;-71
2023/05/26 11:06:31;;;;;;;;;;;18.50;65.30;;;;;;5040993;28;871;-71
2023/05/26 11:08:57;;;;;;;;;;;18.50;65.30;;;;;;5026097;28;1918;-71
2023/05/26 11:11:26;;;;;;;;;;;18.50;65.30;;;;;;5038421;28;1374;-70
2023/05/26 11:13:57;;;;;;;;;;;18.50;65.30;;;;;;5024422;28;915;-71
2023/05/26 11:16:23;;;;;;;;;;;18.50;65.30;;;;;;5027417;28;1377;-71
2023/05/26 11:18:52;;;;;;;;;;;18.50;65.40;;;;;;5024280;28;883;-71
2023/05/26 11:21:18;;;;;;;;;;;18.50;66.10;;;;;;5037282;28;1257;-71
2023/05/26 11:23:46;;;;;;;;;;;18.50;65.30;;;;;;5037054;28;880;-71
2023/05/26 11:26:13;;;;;;;;;;;18.50;65.40;;;;;;5040498;28;867;-70
2023/05/26 11:28:41;;;;;;;;;;;18.50;65.30;;;;;;5040488;28;1898;-71
2023/05/26 11:31:11;;;;;;;;;;;18.50;65.40;;;;;;5041282;28;843;-71
2023/05/26 11:33:38;;;;;;;;;;;18.50;65.30;;;;;;5037680;28;1399;-70
2023/05/26 11:36:07;;;;;;;;;;;18.50;65.30;;;;;;5023510;28;879;-71
2023/05/26 11:38:33;;;;;;;;;;;18.50;65.40;;;;;;5020636;28;807;-71
2023/05/26 11:40:59;;;;;;;;;;;18.50;65.40;;;;;;5038816;28;909;-71
2023/05/26 11:43:24;;;;;;;;;;;18.50;65.30;;;;;;5042033;28;1273;-71
2023/05/26 11:45:53;;;;;;;;;;;18.50;65.40;;;;;;5031545;28;816;-71
2023/05/26 11:48:18;;;;;;;;;;;18.50;65.40;;;;;;5039209;28;1898;-72
2023/05/26 11:50:44;;;;;;;;;;;18.50;65.30;;;;;;5034022;28;1203;-71
2023/05/26 11:53:09;;;;;;;;;;;18.50;65.40;;;;;;5022013;28;1214;-72
2023/05/26 11:55:35;;;;;;;;;;;18.50;65.40;;;;;;5037524;28;1213;-72
2023/05/26 11:58:00;;;;;;;;;;;18.50;65.40;;;;;;5025530;28;999;-71
2023/05/26 12:00:26;;;;;;;;;;;18.50;65.40;;;;;;5041902;28;848;-71
2023/05/26 12:02:51;;;;;;;;;;;18.50;65.40;;;;;;5039857;28;1363;-71
2023/05/26 12:05:23;;;;;;;;;;;18.50;65.40;;;;;;5039483;28;1066;-71
2023/05/26 12:08:01;;;;;;;;;;;18.50;65.40;;;;;;5021078;28;853;-71
2023/05/26 12:10:30;;;;;;;;;;;18.50;65.40;;;;;;5040490;28;1910;-71
2023/05/26 12:12:55;;;;;;;;;;;18.50;65.40;;;;;;5042639;28;1284;-71
2023/05/26 12:15:22;;;;;;;;;;;18.50;65.40;;;;;;5025859;28;998;-71
2023/05/26 12:17:47;;;;;;;;;;;18.50;65.40;;;;;;5023073;28;854;-71
2023/05/26 12:20:19;;;;;;;;;;;18.50;65.40;;;;;;5039325;28;819;-71
2023/05/26 12:22:46;;;;;;;;;;;18.50;65.40;;;;;;5037866;28;1367;-71
2023/05/26 12:25:12;;;;;;;;;;;18.50;65.40;;;;;;5021993;28;1594;-71
2023/05/26 12:27:38;;;;;;;;;;;18.50;65.40;;;;;;5039037;28;954;-71
2023/05/26 12:30:36;;;;;;;;;;;18.50;65.40;;;;;;5021394;28;1960;-71
2023/05/26 12:33:01;;;;;;;;;;;18.50;65.40;;;;;;5009734;28;1372;-71
2023/05/26 12:35:27;;;;;;;;;;;18.50;65.40;;;;;;5020212;28;1244;-71
2023/05/26 12:37:52;;;;;;;;;;;18.50;65.40;;;;;;5038057;28;899;-72
2023/05/26 12:40:18;;;;;;;;;;;18.50;65.40;;;;;;5036782;28;813;-71
2023/05/26 12:42:43;;;;;;;;;;;18.50;66.20;;;;;;5040358;28;1255;-72
2023/05/26 12:45:09;;;;;;;;;;;18.50;65.50;;;;;;5034458;28;833;-71
2023/05/26 12:47:34;;;;;;;;;;;18.50;65.50;;;;;;5026512;28;1337;-71
2023/05/26 12:50:00;;;;;;;;;;;18.50;65.50;;;;;;5036142;28;1993;-71
2023/05/26 12:52:25;;;;;;;;;;;18.50;65.50;;;;;;5037400;28;1276;-71
2023/05/26 12:54:51;;;;;;;;;;;18.50;65.50;;;;;;5037494;28;914;-71
2023/05/26 12:57:17;;;;;;;;;;;18.50;65.50;;;;;;5039407;28;1605;-71
2023/05/26 12:59:43;;;;;;;;;;;18.50;65.50;;;;;;5024307;28;863;-71
2023/05/26 13:02:09;;;;;;;;;;;18.50;65.50;;;;;;5040723;28;1794;-71
2023/05/26 13:04:35;;;;;;;;;;;18.50;65.50;;;;;;5023204;28;890;-71
2023/05/26 13:07:00;;;;;;;;;;;18.50;65.50;;;;;;5039012;28;844;-71
2023/05/26 13:09:26;;;;;;;;;;;18.50;65.50;;;;;;5038930;28;1967;-71
2023/05/26 13:11:51;;;;;;;;;;;18.50;65.50;;;;;;5025343;28;1314;-71
2023/05/26 13:14:18;;;;;;;;;;;18.50;65.50;;;;;;5024291;28;1002;-71
2023/05/26 13:16:43;;;;;;;;;;;18.50;65.50;;;;;;5023749;28;895;-71
2023/05/26 13:19:10;;;;;;;;;;;18.50;65.50;;;;;;5029791;28;1073;-71
2023/05/26 13:21:35;;;;;;;;;;;18.50;65.50;;;;;;5035143;28;1334;-71
2023/05/26 13:24:01;;;;;;;;;;;18.50;65.50;;;;;;5036312;28;926;-72
2023/05/26 13:26:26;;;;;;;;;;;18.50;65.50;;;;;;5022064;28;830;-72
2023/05/26 13:28:52;;;;;;;;;;;18.50;65.50;;;;;;5041305;28;1902;-70
2023/05/26 13:31:18;;;;;;;;;;;18.50;65.50;;;;;;5021107;28;1379;-71
2023/05/26 13:33:43;;;;;;;;;;;18.50;65.60;;;;;;5036251;28;1418;-71
2023/05/26 13:36:09;;;;;;;;;;;18.50;65.50;;;;;;5039922;28;879;-70
2023/05/26 13:38:34;;;;;;;;;;;18.50;65.50;;;;;;5022821;28;1227;-71
2023/05/26 13:41:00;;;;;;;;;;;18.50;65.50;;;;;;5024954;28;891;-71
2023/05/26 13:43:25;;;;;;;;;;;18.50;65.50;;;;;;5036386;28;1341;-71
2023/05/26 13:45:51;;;;;;;;;;;18.50;65.50;;;;;;5038588;28;854;-71
2023/05/26 13:48:17;;;;;;;;;;;18.50;65.50;;;;;;5039003;28;1945;-71
2023/05/26 13:50:42;;;;;;;;;;;18.50;65.50;;;;;;5024927;28;847;-71
2023/05/26 13:53:08;;;;;;;;;;;18.50;65.50;;;;;;5018057;28;1902;-71
2023/05/26 13:55:33;;;;;;;;;;;18.50;65.50;;;;;;5038497;28;1184;-71
2023/05/26 13:57:59;;;;;;;;;;;18.50;65.50;;;;;;5024414;28;1436;-71
2023/05/26 14:00:24;;;;;;;;;;;18.50;65.50;;;;;;5036097;28;1356;-71
2023/05/26 14:02:50;;;;;;;;;;;18.50;65.50;;;;;;5023146;28;2127;-71
2023/05/26 14:05:18;;;;;;;;;;;18.50;65.60;;;;;;5037010;28;1465;-70
2023/05/26 14:07:44;;;;;;;;;;;18.50;65.60;;;;;;5026267;28;4094;-71
2023/05/26 14:10:10;;;;;;;;;;;18.50;65.60;;;;;;5023646;28;1914;-70
2023/05/26 14:12:36;;;;;;;;;;;18.50;65.50;;;;;;5024163;28;1293;-70
2023/05/26 14:15:02;;;;;;;;;;;18.50;65.60;;;;;;5022573;28;869;-71
2023/05/26 14:17:27;;;;;;;;;;;18.50;65.60;;;;;;5038245;28;1517;-69
2023/05/26 14:19:53;;;;;;;;;;;18.50;65.60;;;;;;5038188;28;851;-70
2023/05/26 14:22:19;;;;;;;;;;;18.50;65.60;;;;;;5036145;28;1359;-70
2023/05/26 14:24:44;;;;;;;;;;;18.50;65.60;;;;;;5037208;28;1272;-70
2023/05/26 14:27:10;;;;;;;;;;;18.50;65.60;;;;;;5039758;28;909;-70
2023/05/26 14:29:35;;;;;;;;;;;18.50;65.60;;;;;;5041132;28;1934;-70
2023/05/26 14:32:01;;;;;;;;;;;18.50;65.60;;;;;;5035788;28;1367;-70